createdAt,value
2022-08-17T00:00:43.193Z,99.40
2022-08-17T00:03:13.623Z,99.40
2022-08-17T00:05:46.816Z,99.30
2022-08-17T00:08:16.456Z,99.30
2022-08-17T00:10:45.610Z,99.30
2022-08-17T00:13:17.528Z,99.20
2022-08-17T00:15:47.361Z,99.20
2022-08-17T00:19:06.022Z,99.10
2022-08-17T00:21:10.363Z,99.10
2022-08-17T00:23:47.725Z,99.00
2022-08-17T00:26:43.686Z,99.10
2022-08-17T00:29:07.913Z,99.10
2022-08-17T00:31:36.772Z,99.10
2022-08-17T00:34:08.795Z,99.20
2022-08-17T00:36:37.291Z,99.20
2022-08-17T00:39:05.929Z,99.20
2022-08-17T00:41:35.803Z,99.20
2022-08-17T00:44:05.803Z,99.20
2022-08-17T00:46:36.337Z,99.30
2022-08-17T00:49:06.871Z,99.40
2022-08-17T00:51:39.386Z,99.30
2022-08-17T00:54:12.080Z,99.40
2022-08-17T00:56:45.676Z,99.40
2022-08-17T00:59:18.265Z,99.50
2022-08-17T01:01:47.082Z,99.50
2022-08-17T01:04:19.010Z,99.50
2022-08-17T01:06:49.422Z,99.50
2022-08-17T01:09:18.802Z,99.50
2022-08-17T01:11:52.300Z,99.60
2022-08-17T01:14:21.471Z,99.60
2022-08-17T01:16:51.630Z,99.70
2022-08-17T01:19:24.580Z,99.70
2022-08-17T01:22:00.354Z,99.80
2022-08-17T01:24:30.537Z,99.80
2022-08-17T01:27:02.315Z,99.80
2022-08-17T01:29:31.877Z,99.80
2022-08-17T01:32:03.874Z,99.90
2022-08-17T01:34:42.387Z,99.90
2022-08-17T01:37:12.758Z,99.90
2022-08-17T01:39:46.682Z,99.90
2022-08-17T01:42:21.749Z,99.90
2022-08-17T01:44:52.056Z,99.90
2022-08-17T01:47:20.236Z,99.90
2022-08-17T01:49:48.361Z,99.90
2022-08-17T01:52:17.794Z,99.90
2022-08-17T01:54:49.980Z,99.90
2022-08-17T01:57:18.265Z,99.90
2022-08-17T01:59:46.401Z,99.90
2022-08-17T02:02:30.343Z,99.90
2022-08-17T02:05:00.222Z,99.90
2022-08-17T02:07:28.830Z,99.90
2022-08-17T02:09:58.591Z,99.90
2022-08-17T02:12:37.716Z,99.90
2022-08-17T02:15:07.684Z,99.90
2022-08-17T02:17:35.850Z,99.90
2022-08-17T02:20:04.712Z,99.90
2022-08-17T02:22:33.280Z,99.90
2022-08-17T02:25:05.143Z,99.90
2022-08-17T02:27:33.353Z,99.90
2022-08-17T02:30:01.501Z,99.90
2022-08-17T02:32:29.741Z,99.90
2022-08-17T02:34:58.307Z,99.90
2022-08-17T02:37:27.009Z,99.90
2022-08-17T02:39:56.956Z,99.90
2022-08-17T02:42:31.489Z,99.90
2022-08-17T02:45:00.656Z,99.90
2022-08-17T02:47:29.766Z,99.90
2022-08-17T02:49:58.010Z,99.90
2022-08-17T02:52:42.429Z,99.90
2022-08-17T02:55:15.725Z,99.90
2022-08-17T02:57:45.963Z,99.90
2022-08-17T03:00:17.861Z,99.90
2022-08-17T03:02:47.352Z,99.90
2022-08-17T03:05:20.330Z,99.90
2022-08-17T03:07:52.146Z,99.90
2022-08-17T03:10:22.176Z,99.90
2022-08-17T03:12:53.130Z,99.90
2022-08-17T03:15:23.514Z,99.90
2022-08-17T03:17:52.354Z,99.90
2022-08-17T03:20:21.701Z,99.90
2022-08-17T03:22:53.815Z,99.90
2022-08-17T03:25:25.312Z,99.90
2022-08-17T03:27:55.232Z,99.90
2022-08-17T03:30:24.523Z,99.90
2022-08-17T03:32:54.624Z,99.90
2022-08-17T03:35:25.714Z,99.90
2022-08-17T03:38:00.730Z,99.90
2022-08-17T03:40:55.638Z,99.90
2022-08-17T03:43:22.529Z,99.90
2022-08-17T03:46:19.277Z,99.90
2022-08-17T03:49:13.847Z,99.90
2022-08-17T03:52:00.009Z,99.90
2022-08-17T03:54:45.508Z,99.90
2022-08-17T03:57:13.994Z,99.90
2022-08-17T03:59:44.934Z,99.90
2022-08-17T04:02:18.623Z,99.90
2022-08-17T04:04:46.948Z,99.90
2022-08-17T04:07:15.172Z,99.90
2022-08-17T04:09:43.841Z,99.90
2022-08-17T04:12:12.626Z,99.90
2022-08-17T04:14:53.637Z,99.90
2022-08-17T04:17:25.874Z,99.90
2022-08-17T04:19:54.967Z,99.90
2022-08-17T04:22:30.847Z,99.90
2022-08-17T04:25:04.356Z,99.90
2022-08-17T04:27:32.661Z,99.90
2022-08-17T04:30:00.872Z,99.90
2022-08-17T04:33:04.768Z,99.90
2022-08-17T04:35:21.699Z,99.90
2022-08-17T04:37:49.882Z,99.90
2022-08-17T04:40:37.335Z,99.90
2022-08-17T04:43:07.343Z,99.90
2022-08-17T04:45:39.210Z,99.90
2022-08-17T04:48:09.138Z,99.90
2022-08-17T04:50:40.889Z,99.90
2022-08-17T04:53:09.148Z,99.90
2022-08-17T04:55:37.776Z,99.90
2022-08-17T04:58:06.707Z,99.90
2022-08-17T05:00:36.006Z,99.90
2022-08-17T05:03:04.841Z,99.90
2022-08-17T05:05:37.619Z,99.90
2022-08-17T05:08:08.054Z,99.90
2022-08-17T05:10:39.273Z,99.90
2022-08-17T05:13:16.506Z,99.90
2022-08-17T05:15:47.943Z,99.90
2022-08-17T05:18:18.175Z,99.90
2022-08-17T05:20:47.808Z,99.90
2022-08-17T05:23:19.559Z,99.90
2022-08-17T05:25:50.338Z,99.90
2022-08-17T05:28:23.531Z,99.90
2022-08-17T05:30:56.265Z,99.90
2022-08-17T05:33:27.325Z,99.90
2022-08-17T05:35:59.419Z,99.90
2022-08-17T05:38:30.693Z,99.90
2022-08-17T05:41:00.358Z,99.90
2022-08-17T05:43:30.997Z,99.90
2022-08-17T05:46:06.168Z,99.90
2022-08-17T05:48:40.177Z,99.90
2022-08-17T05:51:38.123Z,99.90
2022-08-17T05:54:26.725Z,99.90
2022-08-17T05:57:08.843Z,99.90
2022-08-17T05:59:49.990Z,99.90
2022-08-17T06:02:25.476Z,99.90
2022-08-17T06:05:10.196Z,99.90
2022-08-17T06:07:49.613Z,99.90
2022-08-17T06:10:28.133Z,99.90
2022-08-17T06:13:06.441Z,99.90
2022-08-17T06:15:52.508Z,99.90
2022-08-17T06:18:27.150Z,99.90
2022-08-17T06:20:58.541Z,99.90
2022-08-17T06:23:33.605Z,99.90
2022-08-17T06:26:07.021Z,99.90
2022-08-17T06:28:42.414Z,99.90
2022-08-17T06:31:19.988Z,99.90
2022-08-17T06:33:48.299Z,99.90
2022-08-17T06:36:30.221Z,99.90
2022-08-17T06:39:12.159Z,99.90
2022-08-17T06:41:51.250Z,99.90
2022-08-17T06:44:43.630Z,99.90
2022-08-17T06:47:28.863Z,99.90
2022-08-17T06:50:08.839Z,99.90
2022-08-17T06:52:46.923Z,99.90
2022-08-17T06:55:22.346Z,99.90
2022-08-17T06:57:53.627Z,99.90
2022-08-17T07:00:24.293Z,99.90
2022-08-17T07:02:57.568Z,99.90
2022-08-17T07:05:31.564Z,99.90
2022-08-17T07:08:04.760Z,99.90
2022-08-17T07:10:40.157Z,99.90
2022-08-17T07:13:21.214Z,99.90
2022-08-17T07:15:56.499Z,99.90
2022-08-17T07:18:33.211Z,99.90
2022-08-17T07:21:09.716Z,99.90
2022-08-17T07:24:03.593Z,99.90
2022-08-17T07:26:33.592Z,99.90
2022-08-17T07:29:02.944Z,99.90
2022-08-17T07:31:33.522Z,99.90
2022-08-17T07:34:10.999Z,99.90
2022-08-17T07:36:39.226Z,99.90
2022-08-17T07:39:07.568Z,99.90
2022-08-17T07:41:53.378Z,99.90
2022-08-17T07:44:26.396Z,99.90
2022-08-17T07:47:13.406Z,99.90
2022-08-17T07:49:46.046Z,99.90
2022-08-17T07:52:50.797Z,99.90
2022-08-17T07:55:29.423Z,99.90
2022-08-17T07:58:00.645Z,99.90
2022-08-17T08:00:32.715Z,99.90
2022-08-17T08:03:13.250Z,99.90
2022-08-17T08:05:51.088Z,99.90
2022-08-17T08:08:29.574Z,99.90
2022-08-17T08:11:04.346Z,99.90
2022-08-17T08:13:35.432Z,99.90
2022-08-17T08:16:24.814Z,99.90
2022-08-17T08:18:57.618Z,99.90
2022-08-17T08:21:46.447Z,99.90
2022-08-17T08:24:30.785Z,99.90
2022-08-17T08:27:07.295Z,99.90
2022-08-17T08:29:50.159Z,99.90
2022-08-17T08:32:28.535Z,99.90
2022-08-17T08:35:09.811Z,99.90
2022-08-17T08:37:46.986Z,99.90
2022-08-17T08:40:33.055Z,99.90
2022-08-17T08:43:09.389Z,99.90
2022-08-17T08:45:47.934Z,99.90
2022-08-17T08:48:53.282Z,99.90
2022-08-17T08:51:22.284Z,99.90
2022-08-17T08:54:01.198Z,99.90
2022-08-17T08:57:19.224Z,99.90
2022-08-17T08:59:44.581Z,99.90
2022-08-17T09:02:34.846Z,99.90
2022-08-17T09:05:14.978Z,99.90
2022-08-17T09:07:54.707Z,99.90
2022-08-17T09:10:32.439Z,99.90
2022-08-17T09:13:10.151Z,99.90
2022-08-17T09:15:43.537Z,99.90
2022-08-17T09:19:00.512Z,99.90
2022-08-17T09:21:18.089Z,99.90
2022-08-17T09:23:59.655Z,99.90
2022-08-17T09:26:32.496Z,99.90
2022-08-17T09:29:08.681Z,99.90
2022-08-17T09:31:46.500Z,99.90
2022-08-17T09:34:28.166Z,99.90
2022-08-17T09:37:16.882Z,99.90
2022-08-17T09:39:54.472Z,99.90
2022-08-17T09:42:31.136Z,99.90
2022-08-17T09:45:23.769Z,99.90
2022-08-17T09:47:57.807Z,99.90
2022-08-17T09:51:05.530Z,99.90
2022-08-17T09:53:24.922Z,99.90
2022-08-17T09:56:14.744Z,99.90
2022-08-17T09:58:57.098Z,99.90
2022-08-17T10:01:36.988Z,99.90
2022-08-17T10:04:20.337Z,99.90
2022-08-17T10:06:58.675Z,99.90
2022-08-17T10:09:45.855Z,99.90
2022-08-17T10:12:30.261Z,99.90
2022-08-17T10:15:24.553Z,99.90
2022-08-17T10:18:21.356Z,99.90
2022-08-17T10:21:17.811Z,99.90
2022-08-17T10:24:09.615Z,99.90
2022-08-17T10:26:55.917Z,99.90
2022-08-17T10:29:30.189Z,99.90
2022-08-17T10:32:15.709Z,99.90
2022-08-17T10:35:00.880Z,99.90
2022-08-17T10:37:51.869Z,99.90
2022-08-17T10:40:33.653Z,99.90
2022-08-17T10:43:17.217Z,99.90
2022-08-17T10:46:30.357Z,99.90
2022-08-17T10:48:42.740Z,99.90
2022-08-17T10:51:34.019Z,99.90
2022-08-17T10:54:02.785Z,99.90
2022-08-17T10:56:59.141Z,99.90
2022-08-17T10:59:50.411Z,99.90
2022-08-17T11:02:28.407Z,99.90
2022-08-17T11:05:28.946Z,99.90
2022-08-17T11:08:27.187Z,99.90
2022-08-17T11:11:07.729Z,99.90
2022-08-17T11:13:46.263Z,99.90
2022-08-17T11:16:30.976Z,99.90
2022-08-17T11:19:41.003Z,99.90
2022-08-17T11:22:37.969Z,99.90
2022-08-17T11:25:17.341Z,99.90
2022-08-17T11:27:53.678Z,99.90
2022-08-17T11:30:47.052Z,99.90
2022-08-17T11:33:56.567Z,99.90
2022-08-17T11:36:40.473Z,99.90
2022-08-17T11:39:25.158Z,99.90
2022-08-17T11:41:58.978Z,99.90
2022-08-17T11:44:39.299Z,99.90
2022-08-17T11:47:35.260Z,99.90
2022-08-17T11:50:54.097Z,99.90
2022-08-17T11:54:28.947Z,99.90
2022-08-17T11:56:51.800Z,99.90
2022-08-17T11:59:59.061Z,99.90
2022-08-17T12:02:48.103Z,99.90
2022-08-17T12:05:34.127Z,99.90
2022-08-17T12:08:09.443Z,99.90
2022-08-17T12:10:52.494Z,99.90
2022-08-17T12:13:23.654Z,99.90
2022-08-17T12:15:59.596Z,99.90
2022-08-17T12:18:32.175Z,99.90
2022-08-17T12:21:15.596Z,99.90
2022-08-17T12:23:56.639Z,99.90
2022-08-17T12:26:30.274Z,99.90
2022-08-17T12:29:02.784Z,99.90
2022-08-17T12:31:37.945Z,99.90
2022-08-17T12:34:17.075Z,99.90
2022-08-17T12:36:46.349Z,99.90
2022-08-17T12:39:21.488Z,99.90
2022-08-17T12:41:52.856Z,99.90
2022-08-17T12:44:23.265Z,99.90
2022-08-17T12:47:00.623Z,99.90
2022-08-17T12:49:35.444Z,99.90
2022-08-17T12:52:13.451Z,99.90
2022-08-17T12:54:52.361Z,99.90
2022-08-17T12:57:23.695Z,99.90
2022-08-17T12:59:58.449Z,99.90
2022-08-17T13:02:39.958Z,99.90
2022-08-17T13:05:19.099Z,99.90
2022-08-17T13:07:47.878Z,99.90
2022-08-17T13:10:31.679Z,99.90
2022-08-17T13:13:04.765Z,99.90
2022-08-17T13:15:37.007Z,99.90
2022-08-17T13:18:08.723Z,99.90
2022-08-17T13:20:39.022Z,99.90
2022-08-17T13:23:12.380Z,99.90
2022-08-17T13:25:41.188Z,99.90
2022-08-17T13:28:35.548Z,99.90
2022-08-17T13:31:24.073Z,99.90
2022-08-17T13:33:52.235Z,99.90
2022-08-17T13:36:30.194Z,99.90
2022-08-17T13:39:09.470Z,99.90
2022-08-17T13:41:39.776Z,99.90
2022-08-17T13:44:33.452Z,99.90
2022-08-17T13:47:02.434Z,99.90
2022-08-17T13:49:42.000Z,99.90
2022-08-17T13:55:21.318Z,99.90
2022-08-17T13:57:57.782Z,99.90
2022-08-17T14:00:37.489Z,99.90
2022-08-17T14:03:06.790Z,99.90
2022-08-17T14:05:37.424Z,99.90
2022-08-17T14:08:07.647Z,99.90
2022-08-17T14:10:38.660Z,99.90
2022-08-17T14:13:08.603Z,99.90
2022-08-17T14:15:55.223Z,99.90
2022-08-17T14:18:35.523Z,99.90
2022-08-17T14:21:15.235Z,99.90
2022-08-17T14:23:54.445Z,99.90
2022-08-17T14:26:24.922Z,99.90
2022-08-17T14:28:56.600Z,99.90
2022-08-17T14:31:27.507Z,99.90
2022-08-17T14:33:56.126Z,99.90
2022-08-17T14:36:24.995Z,99.90
2022-08-17T14:38:53.413Z,99.90
2022-08-17T14:41:23.656Z,99.90
2022-08-17T14:43:54.282Z,99.90
2022-08-17T14:46:23.865Z,99.90
2022-08-17T14:48:57.206Z,99.90
2022-08-17T14:51:27.655Z,99.90
2022-08-17T14:53:57.201Z,99.90
2022-08-17T14:56:26.225Z,99.90
2022-08-17T14:58:56.186Z,99.90
2022-08-17T15:01:27.899Z,99.90
2022-08-17T15:03:56.263Z,99.90
2022-08-17T15:06:24.865Z,99.90
2022-08-17T15:08:53.636Z,99.90
2022-08-17T15:11:21.959Z,99.90
2022-08-17T15:13:52.561Z,99.90
2022-08-17T15:16:23.850Z,99.90
2022-08-17T15:18:52.721Z,99.90
2022-08-17T15:21:20.984Z,99.90
2022-08-17T15:23:49.191Z,99.90
2022-08-17T15:26:22.866Z,99.90
2022-08-17T15:28:57.344Z,99.90
2022-08-17T15:31:31.842Z,99.90
2022-08-17T15:34:01.095Z,99.90
2022-08-17T15:36:29.540Z,99.90
2022-08-17T15:38:58.795Z,99.90
2022-08-17T15:41:28.197Z,99.90
2022-08-17T15:43:57.149Z,99.90
2022-08-17T15:46:27.485Z,99.90
2022-08-17T15:48:59.682Z,99.90
2022-08-17T15:51:30.154Z,99.90
2022-08-17T15:54:04.434Z,99.90
2022-08-17T15:56:47.551Z,99.90
2022-08-17T15:59:15.879Z,99.90
2022-08-17T16:03:13.775Z,99.90
2022-08-17T16:04:34.133Z,99.90
2022-08-17T16:07:02.608Z,99.90
2022-08-17T16:09:30.969Z,99.90
2022-08-17T16:11:59.244Z,99.90
2022-08-17T16:14:30.275Z,99.90
2022-08-17T16:17:04.498Z,99.90
2022-08-17T16:19:34.234Z,99.90
2022-08-17T16:22:02.657Z,99.90
2022-08-17T16:24:31.473Z,99.90
2022-08-17T16:26:59.846Z,99.90
2022-08-17T16:29:28.862Z,99.90
2022-08-17T16:31:57.918Z,99.90
2022-08-17T16:34:27.736Z,99.90
2022-08-17T16:36:57.238Z,99.90
2022-08-17T16:39:27.655Z,99.90
2022-08-17T16:41:56.509Z,99.90
2022-08-17T16:44:25.905Z,99.90
2022-08-17T16:46:54.767Z,99.90
2022-08-17T16:49:31.929Z,99.90
2022-08-17T16:52:11.068Z,99.90
2022-08-17T16:54:43.399Z,99.90
2022-08-17T16:57:12.426Z,99.90
2022-08-17T16:59:44.910Z,99.90
2022-08-17T17:02:16.855Z,99.90
2022-08-17T17:04:53.031Z,99.90
2022-08-17T17:07:39.083Z,99.90
2022-08-17T17:10:11.368Z,99.90
2022-08-17T17:13:02.303Z,99.90
2022-08-17T17:15:41.489Z,99.90
2022-08-17T17:18:14.793Z,99.90
2022-08-17T17:20:50.873Z,99.90
2022-08-17T17:23:35.743Z,99.90
2022-08-17T17:26:17.196Z,99.90
2022-08-17T17:29:10.775Z,99.90
2022-08-17T17:31:46.294Z,99.90
2022-08-17T17:34:17.089Z,99.90
2022-08-17T17:36:51.513Z,99.90
2022-08-17T17:39:29.222Z,99.90
2022-08-17T17:42:00.665Z,99.90
2022-08-17T17:44:34.679Z,99.90
2022-08-17T17:47:04.766Z,99.90
2022-08-17T17:49:37.134Z,99.90
2022-08-17T17:52:15.590Z,99.90
2022-08-17T17:55:06.752Z,99.90
2022-08-17T17:57:46.986Z,99.90
2022-08-17T18:00:19.628Z,99.90
2022-08-17T18:03:02.414Z,99.90
2022-08-17T18:05:47.534Z,99.90
2022-08-17T18:08:38.171Z,99.90
2022-08-17T18:11:34.892Z,99.90
2022-08-17T18:14:19.394Z,99.90
2022-08-17T18:16:54.469Z,99.90
2022-08-17T18:19:26.706Z,99.90
2022-08-17T18:22:04.290Z,99.90
2022-08-17T18:24:39.008Z,99.90
2022-08-17T18:27:23.448Z,99.90
2022-08-17T18:29:54.606Z,99.90
2022-08-17T18:32:39.734Z,99.90
2022-08-17T18:35:30.908Z,99.90
2022-08-17T18:38:21.006Z,99.90
2022-08-17T18:41:00.783Z,99.90
2022-08-17T18:43:43.820Z,99.90
2022-08-17T18:46:28.625Z,99.90
2022-08-17T18:49:01.570Z,99.90
2022-08-17T18:51:41.834Z,99.90
2022-08-17T18:54:20.727Z,99.90
2022-08-17T18:56:56.227Z,99.90
2022-08-17T18:59:35.061Z,99.90
2022-08-17T19:02:44.776Z,99.90
2022-08-17T19:05:38.452Z,99.90
2022-08-17T19:08:21.917Z,99.90
2022-08-17T19:10:55.343Z,99.90
2022-08-17T19:13:30.740Z,99.90
2022-08-17T19:16:14.693Z,99.90
2022-08-17T19:18:50.023Z,99.90
2022-08-17T19:21:29.138Z,99.90
2022-08-17T19:24:05.340Z,99.90
2022-08-17T19:26:54.502Z,99.90
2022-08-17T19:29:34.328Z,99.90
2022-08-17T19:32:08.133Z,99.90
2022-08-17T19:34:40.340Z,99.90
2022-08-17T19:37:20.937Z,99.90
2022-08-17T19:40:00.709Z,99.90
2022-08-17T19:42:40.512Z,99.90
2022-08-17T19:45:18.160Z,99.90
2022-08-17T19:47:55.939Z,99.90
2022-08-17T19:50:33.331Z,99.90
2022-08-17T19:53:09.576Z,99.90
2022-08-17T19:55:51.074Z,99.90
2022-08-17T19:58:36.195Z,99.90
2022-08-17T20:01:07.578Z,99.90
2022-08-17T20:03:45.836Z,99.90
2022-08-17T20:06:18.362Z,99.90
2022-08-17T20:08:56.587Z,99.90
2022-08-17T20:11:33.001Z,99.90
2022-08-17T20:14:06.567Z,99.90
2022-08-17T20:16:35.352Z,99.90
2022-08-17T20:19:09.663Z,99.90
2022-08-17T20:21:43.751Z,99.90
2022-08-17T20:24:22.020Z,99.90
2022-08-17T20:26:58.472Z,99.90
2022-08-17T20:29:39.936Z,99.90
2022-08-17T20:32:18.862Z,99.90
2022-08-17T20:34:49.245Z,99.90
2022-08-17T20:37:31.165Z,99.90
2022-08-17T20:40:28.194Z,99.90
2022-08-17T20:42:58.348Z,99.90
2022-08-17T20:46:18.775Z,99.90
2022-08-17T20:48:50.711Z,99.90
2022-08-17T20:51:30.591Z,99.90
2022-08-17T20:54:35.223Z,99.90
2022-08-17T20:57:09.171Z,99.90
2022-08-17T21:00:02.913Z,99.90
2022-08-17T21:02:32.291Z,99.90
2022-08-17T21:05:20.171Z,99.90
2022-08-17T21:07:59.907Z,99.90
2022-08-17T21:10:37.263Z,99.90
2022-08-17T21:13:37.403Z,99.90
2022-08-17T21:16:23.866Z,99.90
2022-08-17T21:18:58.976Z,99.90
2022-08-17T21:21:35.408Z,99.90
2022-08-17T21:24:15.108Z,99.90
2022-08-17T21:26:55.469Z,99.90
2022-08-17T21:29:31.169Z,99.90
2022-08-17T21:32:24.284Z,99.90
2022-08-17T21:35:47.269Z,99.90
2022-08-17T21:38:17.260Z,99.90
2022-08-17T21:40:50.101Z,99.90
2022-08-17T21:43:26.492Z,99.90
2022-08-17T21:46:02.794Z,99.90
2022-08-17T21:48:33.268Z,99.90
2022-08-17T21:51:17.622Z,99.90
2022-08-17T21:53:49.172Z,99.90
2022-08-17T21:56:25.991Z,99.90
2022-08-17T21:59:01.259Z,99.90
2022-08-17T22:01:34.657Z,99.90
2022-08-17T22:04:06.616Z,99.90
2022-08-17T22:06:38.340Z,99.90
2022-08-17T22:09:18.034Z,99.90
2022-08-17T22:11:57.009Z,99.90
2022-08-17T22:14:51.442Z,99.90
2022-08-17T22:17:20.312Z,99.90
2022-08-17T22:19:51.488Z,99.90
2022-08-17T22:22:30.625Z,99.90
2022-08-17T22:25:03.557Z,99.90
2022-08-17T22:27:54.166Z,99.90
2022-08-17T22:30:32.696Z,99.90
2022-08-17T22:33:02.463Z,99.90
2022-08-17T22:35:40.324Z,99.90
2022-08-17T22:38:33.453Z,99.90
2022-08-17T22:41:41.122Z,99.90
2022-08-17T22:44:24.180Z,99.90
2022-08-17T22:46:59.960Z,99.90
2022-08-17T22:49:32.785Z,99.90
2022-08-17T22:52:08.661Z,99.90
2022-08-17T22:54:54.398Z,99.90
2022-08-17T22:57:51.502Z,99.90
2022-08-17T23:00:34.599Z,99.90
2022-08-17T23:03:14.415Z,99.90
2022-08-17T23:05:45.011Z,99.90
2022-08-17T23:08:13.869Z,99.90
2022-08-17T23:10:45.273Z,99.90
2022-08-17T23:13:13.901Z,99.90
2022-08-17T23:15:44.542Z,99.90
2022-08-17T23:18:13.002Z,99.90
2022-08-17T23:20:42.761Z,99.90
2022-08-17T23:23:12.225Z,99.90
2022-08-17T23:25:40.863Z,99.90
2022-08-17T23:28:09.111Z,99.90
2022-08-17T23:30:42.118Z,99.90
2022-08-17T23:33:19.488Z,99.90
2022-08-17T23:35:48.108Z,99.90
2022-08-17T23:38:16.311Z,99.90
2022-08-17T23:40:44.560Z,99.90
2022-08-17T23:43:23.512Z,99.90
2022-08-17T23:45:53.687Z,99.90
2022-08-17T23:48:33.017Z,99.90
2022-08-17T23:51:09.416Z,99.90
2022-08-17T23:53:40.252Z,99.90
2022-08-17T23:56:11.454Z,99.90
2022-08-17T23:58:43.690Z,99.90
